Time;durP1;ratioP1;P1;durP2;ratioP2;P2;SDS_P1;SDS_P2;PMS_P1;PMS_P2;Temp;Humidity;BMP_temperature;BMP_pressure;BME280_temperature;BME280_humidity;BME280_pressure;Samples;Min_cycle;Max_cycle;Signal;HPM_P1;HPM_P2
2023/08/12 00:00:11;;;;;;;0.00;0.00;;;21.20;99.90;;;;;;5009855;28;20034;-59
2023/08/12 00:02:41;;;;;;;0.00;0.00;;;21.10;99.90;;;;;;5005956;28;20041;-58
2023/08/12 00:05:07;;;;;;;0.00;0.00;;;21.10;99.90;;;;;;5024592;28;20033;-60
2023/08/12 00:07:34;;;;;;;0.00;0.00;;;21.10;99.90;;;;;;5012581;28;20498;-60
2023/08/12 00:10:03;;;;;;;0.00;0.00;;;21.00;99.90;;;;;;5005588;28;20064;-60
2023/08/12 00:12:29;;;;;;;0.00;0.00;;;21.10;99.90;;;;;;5013132;28;20038;-59
2023/08/12 00:14:55;;;;;;;0.00;0.00;;;21.20;99.90;;;;;;5002211;28;20589;-59
2023/08/12 00:17:21;;;;;;;0.00;0.00;;;21.20;99.90;;;;;;4995202;28;20129;-59
2023/08/12 00:19:46;;;;;;;0.00;0.00;;;21.10;99.90;;;;;;5016832;28;20486;-58
2023/08/12 00:22:12;;;;;;;0.00;0.00;;;21.10;99.90;;;;;;5013995;28;20112;-60
2023/08/12 00:24:39;;;;;;;0.00;0.00;;;21.20;99.90;;;;;;5003517;28;20041;-60
2023/08/12 00:27:06;;;;;;;0.00;0.00;;;21.20;99.90;;;;;;4997625;28;20121;-60
2023/08/12 00:29:32;;;;;;;0.00;0.00;;;21.20;99.90;;;;;;4999590;28;20038;-60
2023/08/12 00:31:58;;;;;;;0.00;0.00;;;21.20;99.90;;;;;;5006891;28;20128;-56
2023/08/12 00:34:24;;;;;;;0.00;0.00;;;21.10;99.90;;;;;;5012349;28;20120;-58
2023/08/12 00:36:49;;;;;;;0.00;0.00;;;21.10;99.90;;;;;;5005316;28;20426;-58
2023/08/12 00:39:15;;;;;;;0.00;0.00;;;21.10;99.90;;;;;;5003869;28;20136;-58
2023/08/12 00:41:41;;;;;;;0.00;0.00;;;21.10;99.90;;;;;;5004190;28;20038;-59
2023/08/12 00:44:06;;;;;;;0.00;0.00;;;21.20;99.90;;;;;;5011200;28;20047;-60
2023/08/12 00:46:33;;;;;;;0.00;0.00;;;21.20;99.90;;;;;;5003364;28;20060;-60
2023/08/12 00:48:59;;;;;;;0.00;0.00;;;;;;;;;;5012880;28;20512;-60
2023/08/12 00:51:25;;;;;;;0.00;0.00;;;21.00;99.90;;;;;;4997259;28;20056;-60
2023/08/12 00:53:52;;;;;;;0.00;0.00;;;21.10;99.90;;;;;;5003621;28;20250;-60
2023/08/12 00:56:18;;;;;;;0.00;0.00;;;21.00;99.90;;;;;;5001473;28;20125;-59
2023/08/12 00:58:44;;;;;;;0.00;0.00;;;20.90;99.90;;;;;;5002968;28;21048;-60
2023/08/12 01:01:11;;;;;;;0.00;0.00;;;20.90;99.90;;;;;;4998053;28;20045;-57
2023/08/12 01:03:37;;;;;;;0.00;0.00;;;21.00;99.90;;;;;;5000362;28;20065;-58
2023/08/12 01:06:03;;;;;;;0.00;0.00;;;21.00;99.90;;;;;;5016829;28;20040;-58
2023/08/12 01:08:31;;;;;;;0.00;0.00;;;20.90;99.90;;;;;;5021529;28;20124;-58
2023/08/12 01:11:16;;;;;;;0.00;0.00;;;21.00;99.90;;;;;;5022029;28;20037;-59
2023/08/12 01:13:44;;;;;;;0.00;0.00;;;21.00;99.90;;;;;;5009153;28;20034;-57
2023/08/12 01:16:13;;;;;;;0.00;0.00;;;20.90;99.90;;;;;;4999207;28;20112;-56
2023/08/12 01:18:40;;;;;;;0.00;0.00;;;20.90;99.90;;;;;;5006008;28;20501;-57
2023/08/12 01:21:08;;;;;;;0.00;0.00;;;21.00;99.90;;;;;;5005597;28;20038;-57
2023/08/12 01:23:34;;;;;;;0.00;0.00;;;20.90;99.90;;;;;;5016985;28;20022;-57
2023/08/12 01:26:00;;;;;;;0.00;0.00;;;20.80;99.90;;;;;;5007785;28;20125;-58
2023/08/12 01:28:25;;;;;;;0.00;0.00;;;21.20;99.90;;;;;;5001769;28;20034;-57
2023/08/12 01:30:56;;;;;;;0.00;0.00;;;21.20;99.90;;;;;;5000663;28;20030;-57
2023/08/12 01:33:31;;;;;;;0.00;0.00;;;21.00;99.90;;;;;;5006073;28;20041;-58
2023/08/12 01:36:15;;;;;;;0.00;0.00;;;21.00;99.90;;;;;;5023515;28;20691;-58
2023/08/12 01:38:42;;;;;;;0.00;0.00;;;21.10;99.90;;;;;;5022057;28;20033;-57
2023/08/12 01:41:10;;;;;;;0.00;0.00;;;21.00;99.90;;;;;;5013076;28;20379;-62
2023/08/12 01:43:36;;;;;;;0.00;0.00;;;21.30;99.90;;;;;;5007990;28;20515;-57
2023/08/12 01:46:02;;;;;;;0.00;0.00;;;21.20;99.90;;;;;;5023456;28;20058;-58
2023/08/12 01:48:27;;;;;;;0.00;0.00;;;21.40;99.90;;;;;;5011367;28;20030;-58
2023/08/12 01:50:53;;;;;;;0.00;0.00;;;21.10;99.90;;;;;;5011711;28;20022;-58
2023/08/12 01:53:18;;;;;;;0.00;0.00;;;21.10;99.90;;;;;;5022306;28;20037;-58
2023/08/12 01:55:45;;;;;;;0.00;0.00;;;21.20;99.90;;;;;;5022063;28;20054;-58
2023/08/12 01:58:10;;;;;;;0.00;0.00;;;21.10;99.90;;;;;;5003897;28;20042;-58
2023/08/12 02:00:36;;;;;;;0.00;0.00;;;21.00;99.90;;;;;;4993530;28;20430;-57
2023/08/12 02:03:02;;;;;;;0.00;0.00;;;21.20;99.90;;;;;;4992006;28;20038;-58
2023/08/12 02:05:28;;;;;;;0.00;0.00;;;21.20;99.90;;;;;;5000070;28;20528;-58
2023/08/12 02:07:53;;;;;;;0.00;0.00;;;21.10;99.90;;;;;;4998790;28;20041;-58
2023/08/12 02:10:19;;;;;;;0.00;0.00;;;21.10;99.90;;;;;;5003611;28;20034;-58
2023/08/12 02:12:44;;;;;;;0.00;0.00;;;21.10;99.90;;;;;;4999579;28;20408;-58
2023/08/12 02:15:10;;;;;;;0.00;0.00;;;21.10;99.90;;;;;;5002875;28;20060;-58
2023/08/12 02:17:36;;;;;;;0.00;0.00;;;20.90;99.90;;;;;;5000437;28;20046;-57
2023/08/12 02:20:03;;;;;;;0.00;0.00;;;21.20;99.90;;;;;;5014340;28;20104;-58
2023/08/12 02:22:29;;;;;;;0.00;0.00;;;21.00;99.90;;;;;;5006006;28;20567;-57
2023/08/12 02:24:55;;;;;;;0.00;0.00;;;21.10;99.90;;;;;;5011181;28;20030;-58
2023/08/12 02:27:20;;;;;;;0.00;0.00;;;21.40;99.90;;;;;;5004252;28;20046;-57
2023/08/12 02:29:46;;;;;;;0.00;0.00;;;20.90;99.90;;;;;;5006415;28;20702;-56
2023/08/12 02:32:11;;;;;;;0.00;0.00;;;21.10;99.90;;;;;;5000373;28;20030;-57
2023/08/12 02:34:37;;;;;;;0.00;0.00;;;21.00;99.90;;;;;;5005003;28;20058;-58
2023/08/12 02:37:02;;;;;;;0.00;0.00;;;21.00;99.90;;;;;;5006318;28;20096;-58
2023/08/12 02:39:28;;;;;;;0.00;0.00;;;21.00;99.90;;;;;;5006011;28;20034;-58
2023/08/12 02:41:54;;;;;;;0.00;0.00;;;21.00;99.90;;;;;;5007442;28;20037;-57
2023/08/12 02:44:19;;;;;;;0.00;0.00;;;21.00;99.90;;;;;;5012806;28;20159;-57
2023/08/12 02:46:45;;;;;;;0.00;0.00;;;21.00;99.90;;;;;;5011639;28;20034;-57
2023/08/12 02:49:10;;;;;;;0.00;0.00;;;21.00;99.90;;;;;;5015679;28;20033;-58
2023/08/12 02:51:36;;;;;;;0.00;0.00;;;21.00;99.90;;;;;;5013732;28;20045;-60
2023/08/12 02:54:02;;;;;;;0.00;0.00;;;21.00;99.90;;;;;;5005321;28;20041;-58
2023/08/12 02:56:27;;;;;;;0.00;0.00;;;21.10;99.90;;;;;;5003162;28;20042;-60
2023/08/12 02:58:53;;;;;;;0.00;0.00;;;21.10;99.90;;;;;;5011699;28;20103;-60
2023/08/12 03:01:19;;;;;;;0.00;0.00;;;21.10;99.90;;;;;;5007017;28;20374;-58
2023/08/12 03:03:45;;;;;;;0.00;0.00;;;21.20;99.90;;;;;;5014875;28;20124;-59
2023/08/12 03:06:10;;;;;;;0.00;0.00;;;21.20;99.90;;;;;;5005595;28;20466;-59
2023/08/12 03:08:36;;;;;;;0.00;0.00;;;21.20;99.90;;;;;;5004434;28;20034;-60
2023/08/12 03:11:02;;;;;;;0.00;0.00;;;21.10;99.90;;;;;;5004976;28;20541;-58
2023/08/12 03:13:28;;;;;;;0.00;0.00;;;21.10;99.90;;;;;;5012527;28;20064;-57
2023/08/12 03:15:54;;;;;;;0.00;0.00;;;21.00;99.90;;;;;;5000348;28;20073;-59
2023/08/12 03:18:20;;;;;;;0.00;0.00;;;21.00;99.90;;;;;;5002445;28;20096;-59
2023/08/12 03:20:45;;;;;;;0.00;0.00;;;21.10;99.90;;;;;;5005335;28;20057;-59
2023/08/12 03:23:11;;;;;;;0.00;0.00;;;21.00;99.90;;;;;;5020048;28;20491;-60
2023/08/12 03:25:37;;;;;;;0.00;0.00;;;21.00;99.90;;;;;;5004702;28;20032;-58
2023/08/12 03:28:02;;;;;;;0.00;0.00;;;21.00;99.90;;;;;;5004923;28;20046;-60
2023/08/12 03:30:28;;;;;;;0.00;0.00;;;21.10;99.90;;;;;;5012959;28;20733;-58
2023/08/12 03:32:53;;;;;;;0.00;0.00;;;21.20;99.90;;;;;;5006115;28;20032;-60
2023/08/12 03:35:19;;;;;;;0.00;0.00;;;21.10;99.90;;;;;;5000564;28;20042;-59
2023/08/12 03:37:45;;;;;;;0.00;0.00;;;21.10;99.90;;;;;;5003988;28;20033;-59
2023/08/12 03:40:11;;;;;;;0.00;0.00;;;21.20;99.90;;;;;;5005105;28;20045;-60
2023/08/12 03:42:36;;;;;;;0.00;0.00;;;21.10;99.90;;;;;;5005528;28;20058;-60
2023/08/12 03:45:02;;;;;;;0.00;0.00;;;21.10;99.90;;;;;;5017158;28;20440;-59
2023/08/12 03:47:28;;;;;;;0.00;0.00;;;21.10;99.90;;;;;;5000515;28;20042;-59
2023/08/12 03:49:54;;;;;;;0.00;0.00;;;21.10;99.90;;;;;;5013082;28;20037;-60
2023/08/12 03:52:19;;;;;;;0.00;0.00;;;21.20;99.90;;;;;;5019097;28;20181;-59
2023/08/12 03:54:45;;;;;;;0.00;0.00;;;21.20;99.90;;;;;;5024932;28;20072;-60
2023/08/12 03:57:11;;;;;;;0.00;0.00;;;21.20;99.90;;;;;;5016213;28;20026;-59
2023/08/12 03:59:36;;;;;;;0.00;0.00;;;21.10;99.90;;;;;;5010919;28;20038;-59
2023/08/12 04:02:03;;;;;;;0.00;0.00;;;21.20;99.90;;;;;;5013484;28;20048;-58
2023/08/12 04:04:29;;;;;;;0.00;0.00;;;21.10;99.90;;;;;;5017239;28;20411;-58
2023/08/12 04:06:55;;;;;;;0.00;0.00;;;21.10;99.90;;;;;;5012695;28;20040;-57
2023/08/12 04:09:20;;;;;;;0.00;0.00;;;21.10;99.90;;;;;;5016026;28;20066;-57
2023/08/12 04:11:46;;;;;;;0.00;0.00;;;21.20;99.90;;;;;;5024393;28;20034;-58
2023/08/12 04:14:13;;;;;;;0.00;0.00;;;21.20;99.90;;;;;;5015353;28;20081;-58
2023/08/12 04:16:39;;;;;;;0.00;0.00;;;21.10;99.90;;;;;;5008879;28;20374;-57
2023/08/12 04:19:05;;;;;;;0.00;0.00;;;21.00;99.90;;;;;;5010461;28;20533;-57
2023/08/12 04:21:30;;;;;;;0.00;0.00;;;21.00;99.90;;;;;;5004735;28;20037;-58
2023/08/12 04:23:56;;;;;;;0.00;0.00;;;21.00;99.90;;;;;;5003590;28;20125;-57
2023/08/12 04:26:21;;;;;;;0.00;0.00;;;21.00;99.90;;;;;;5003881;28;20049;-57
2023/08/12 04:28:47;;;;;;;0.00;0.00;;;21.00;99.90;;;;;;5002409;28;20462;-58
2023/08/12 04:31:13;;;;;;;0.00;0.00;;;20.90;99.90;;;;;;4994165;28;20044;-57
2023/08/12 04:33:38;;;;;;;0.00;0.00;;;20.90;99.90;;;;;;4995874;28;20697;-57
2023/08/12 04:36:04;;;;;;;0.00;0.00;;;20.90;99.90;;;;;;4994678;28;20109;-57
2023/08/12 04:38:31;;;;;;;0.00;0.00;;;20.80;99.90;;;;;;5010531;28;20034;-57
2023/08/12 04:40:57;;;;;;;0.00;0.00;;;20.90;99.90;;;;;;5000425;28;20033;-57
2023/08/12 04:43:22;;;;;;;0.00;0.00;;;20.80;99.90;;;;;;5000461;28;20489;-56
2023/08/12 04:45:48;;;;;;;0.00;0.00;;;21.00;99.90;;;;;;5023657;28;20064;-57
2023/08/12 04:48:14;;;;;;;0.00;0.00;;;21.10;99.90;;;;;;5022099;28;20033;-57
2023/08/12 04:50:42;;;;;;;0.00;0.00;;;21.00;99.90;;;;;;5008913;28;20076;-57
2023/08/12 04:53:07;;;;;;;0.00;0.00;;;21.00;99.90;;;;;;5021126;28;20032;-58
2023/08/12 04:55:35;;;;;;;0.00;0.00;;;21.10;99.90;;;;;;5024495;28;20037;-56
2023/08/12 04:58:01;;;;;;;0.00;0.00;;;21.10;99.90;;;;;;5023673;28;20028;-57
2023/08/12 05:00:28;;;;;;;0.00;0.00;;;21.10;99.90;;;;;;5011518;28;20513;-58
2023/08/12 05:02:53;;;;;;;0.00;0.00;;;21.00;99.90;;;;;;5020418;28;20033;-57
2023/08/12 05:05:19;;;;;;;0.00;0.00;;;21.00;99.90;;;;;;5020689;28;20044;-57
2023/08/12 05:07:48;;;;;;;0.00;0.00;;;21.00;99.90;;;;;;5003896;28;20905;-56
2023/08/12 05:10:17;;;;;;;0.00;0.00;;;21.00;99.90;;;;;;5005787;28;20040;-58
2023/08/12 05:12:44;;;;;;;0.00;0.00;;;21.10;99.90;;;;;;5003524;28;20034;-57
2023/08/12 05:15:13;;;;;;;16.80;14.95;;;21.10;99.90;;;;;;5013092;28;20245;-58
2023/08/12 05:17:38;;;;;;;55.35;36.38;;;21.10;99.90;;;;;;5023683;28;20116;-57
2023/08/12 05:20:05;;;;;;;74.38;44.15;;;21.20;99.90;;;;;;5022890;28;20577;-58
2023/08/12 05:22:31;;;;;;;72.18;43.15;;;21.20;99.90;;;;;;5004188;28;20034;-57
2023/08/12 05:24:56;;;;;;;53.40;35.67;;;21.10;99.90;;;;;;5005962;28;20095;-56
2023/08/12 05:27:22;;;;;;;49.75;34.08;;;21.10;99.90;;;;;;5001835;28;20082;-57
2023/08/12 05:29:47;;;;;;;50.08;34.65;;;21.20;99.90;;;;;;5016974;28;20049;-57
2023/08/12 05:32:13;;;;;;;56.78;36.78;;;21.10;99.90;;;;;;4999855;28;20049;-60
2023/08/12 05:34:38;;;;;;;49.88;32.85;;;21.20;99.90;;;;;;5003388;28;20053;-61
2023/08/12 05:37:04;;;;;;;51.03;33.58;;;21.20;99.90;;;;;;5003005;28;20038;-61
2023/08/12 05:39:29;;;;;;;49.97;33.35;;;21.20;99.90;;;;;;5008305;28;20069;-60
2023/08/12 05:41:55;;;;;;;46.90;34.00;;;21.10;99.90;;;;;;5007435;28;20033;-60
2023/08/12 05:44:21;;;;;;;54.63;35.47;;;21.10;99.90;;;;;;5016909;28;21684;-61
2023/08/12 05:46:46;;;;;;;53.95;35.03;;;21.10;99.90;;;;;;5026775;28;20040;-60
2023/08/12 05:49:12;;;;;;;52.53;35.58;;;21.20;99.90;;;;;;5026139;28;20067;-60
2023/08/12 05:51:38;;;;;;;52.97;34.97;;;21.20;99.90;;;;;;5024979;28;20171;-60
2023/08/12 05:54:04;;;;;;;49.10;33.33;;;21.10;99.90;;;;;;5025742;28;20057;-60
2023/08/12 05:56:30;;;;;;;42.42;31.20;;;21.20;99.90;;;;;;5027207;28;20306;-60
2023/08/12 05:58:55;;;;;;;42.15;29.13;;;21.20;99.90;;;;;;5018342;28;20116;-60
2023/08/12 06:01:21;;;;;;;39.95;27.75;;;21.10;99.90;;;;;;5021078;28;20502;-60
2023/08/12 06:03:47;;;;;;;40.33;27.98;;;21.10;99.90;;;;;;5003087;28;20053;-60
2023/08/12 06:06:12;;;;;;;41.53;27.40;;;21.10;99.90;;;;;;5006465;28;20124;-61
2023/08/12 06:08:38;;;;;;;38.80;28.40;;;21.10;99.90;;;;;;5005903;28;20038;-61
2023/08/12 06:11:03;;;;;;;41.25;30.00;;;21.00;99.90;;;;;;5004551;28;20041;-62
2023/08/12 06:13:29;;;;;;;40.35;28.30;;;21.00;99.90;;;;;;4999172;28;20125;-62
2023/08/12 06:15:55;;;;;;;40.33;29.60;;;22.40;99.90;;;;;;5005213;28;20121;-61
2023/08/12 06:18:20;;;;;;;39.85;29.30;;;21.00;99.90;;;;;;5005180;28;20132;-62
2023/08/12 06:20:46;;;;;;;35.58;28.50;;;21.10;99.90;;;;;;5006390;28;20394;-62
2023/08/12 06:23:11;;;;;;;41.55;30.13;;;21.00;99.90;;;;;;5004639;28;20129;-62
2023/08/12 06:25:37;;;;;;;38.47;29.65;;;21.00;99.90;;;;;;5012530;28;20068;-62
2023/08/12 06:28:04;;;;;;;39.15;29.92;;;21.10;99.90;;;;;;5001019;28;20231;-62
2023/08/12 06:30:30;;;;;;;37.00;28.65;;;21.10;99.90;;;;;;5003638;28;20041;-62
2023/08/12 06:32:56;;;;;;;37.63;28.17;;;21.00;99.90;;;;;;5006292;28;20034;-62
2023/08/12 06:35:21;;;;;;;35.97;29.15;;;21.00;99.90;;;;;;5005239;28;20091;-62
2023/08/12 06:37:47;;;;;;;37.45;29.48;;;21.10;99.90;;;;;;5007851;28;20048;-62
2023/08/12 06:40:13;;;;;;;37.35;28.27;;;21.10;99.90;;;;;;5003469;28;20174;-61
2023/08/12 06:42:38;;;;;;;38.50;30.42;;;21.00;99.90;;;;;;5008455;28;20490;-62
2023/08/12 06:45:05;;;;;;;41.60;30.67;;;21.00;99.90;;;;;;5004150;28;20062;-61
2023/08/12 06:47:31;;;;;;;34.45;29.38;;;21.10;99.90;;;;;;5018690;28;20069;-61
2023/08/12 06:49:56;;;;;;;40.90;31.55;;;21.30;99.90;;;;;;5000174;28;20380;-62
2023/08/12 06:52:22;;;;;;;37.95;30.98;;;21.10;99.90;;;;;;5013322;28;20029;-63
2023/08/12 06:54:48;;;;;;;40.28;31.02;;;21.10;99.90;;;;;;5006566;28;20065;-62
2023/08/12 06:57:13;;;;;;;40.53;31.42;;;21.10;99.90;;;;;;5006082;28;20319;-62
2023/08/12 06:59:39;;;;;;;42.53;32.90;;;;;;;;;;5004276;28;20029;-61
2023/08/12 07:02:06;;;;;;;45.38;33.50;;;21.10;99.90;;;;;;5003058;28;20065;-62
2023/08/12 07:04:32;;;;;;;48.55;33.58;;;21.10;99.90;;;;;;5007595;28;20038;-62
2023/08/12 07:06:57;;;;;;;48.95;34.97;;;20.90;99.90;;;;;;5007620;28;20041;-62
2023/08/12 07:09:23;;;;;;;40.58;31.40;;;20.90;99.90;;;;;;5017315;28;20152;-61
2023/08/12 07:11:49;;;;;;;42.65;31.60;;;20.80;99.90;;;;;;5019446;28;20059;-62
2023/08/12 07:14:14;;;;;;;34.90;29.02;;;20.80;99.90;;;;;;5009747;28;20069;-62
2023/08/12 07:16:40;;;;;;;45.97;32.80;;;20.80;99.90;;;;;;5007363;28;20041;-62
2023/08/12 07:19:05;;;;;;;57.00;38.42;;;20.90;99.90;;;;;;5006696;28;20025;-61
2023/08/12 07:21:31;;;;;;;51.53;36.15;;;21.10;99.90;;;;;;5001438;28;20300;-61
2023/08/12 07:23:56;;;;;;;42.30;30.40;;;21.10;99.90;;;;;;5000760;28;20034;-62
2023/08/12 07:26:22;;;;;;;35.22;26.88;;;21.00;99.90;;;;;;5006335;28;21217;-62
2023/08/12 07:28:48;;;;;;;34.78;28.20;;;21.10;99.90;;;;;;5015074;28;20045;-62
2023/08/12 07:31:13;;;;;;;36.95;29.70;;;21.20;99.90;;;;;;5012914;28;20041;-62
2023/08/12 07:33:39;;;;;;;31.77;26.05;;;21.20;99.90;;;;;;5010107;28;20041;-62
2023/08/12 07:36:05;;;;;;;31.00;24.65;;;21.10;99.90;;;;;;5024742;28;20033;-61
2023/08/12 07:38:30;;;;;;;34.33;25.40;;;21.10;99.90;;;;;;5012460;28;20068;-62
2023/08/12 07:40:56;;;;;;;34.10;27.60;;;21.10;99.90;;;;;;5012384;28;20034;-63
2023/08/12 07:43:21;;;;;;;35.45;29.77;;;21.20;99.90;;;;;;5027838;28;20079;-62
2023/08/12 07:45:53;;;;;;;29.85;25.75;;;21.40;99.90;;;;;;5003131;28;20471;-62
2023/08/12 07:48:20;;;;;;;39.20;28.08;;;21.30;99.90;;;;;;5003214;28;20262;-62
2023/08/12 07:50:48;;;;;;;12.50;10.43;;;21.40;99.90;;;;;;4997939;28;20486;-61
2023/08/12 07:53:15;;;;;;;10.27;9.23;;;21.40;99.90;;;;;;5007830;28;20485;-61
2023/08/12 07:55:41;;;;;;;11.63;9.75;;;21.30;99.90;;;;;;5010525;28;20041;-61
2023/08/12 07:58:07;;;;;;;10.55;9.45;;;21.20;99.90;;;;;;4999781;28;20521;-61
2023/08/12 08:00:33;;;;;;;9.70;7.10;;;21.20;99.90;;;;;;4999477;28;20046;-61
2023/08/12 08:02:59;;;;;;;6.30;5.60;;;21.20;99.90;;;;;;5004884;28;20049;-61
2023/08/12 08:05:24;;;;;;;8.43;7.45;;;21.10;99.90;;;;;;5000711;28;20034;-61
2023/08/12 08:07:50;;;;;;;9.05;6.97;;;21.20;99.90;;;;;;4988839;28;20038;-61
2023/08/12 08:10:16;;;;;;;7.78;6.47;;;;;;;;;;5000012;28;20532;-63
2023/08/12 08:12:42;;;;;;;7.25;5.65;;;;;;;;;;4991292;28;20113;-64
2023/08/12 08:15:08;;;;;;;3.50;3.20;;;;;;;;;;5004535;28;20029;-64
2023/08/12 08:17:34;;;;;;;1.17;0.90;;;21.30;99.90;;;;;;5012414;28;20038;-63
2023/08/12 08:19:59;;;;;;;0.00;0.00;;;21.40;99.90;;;;;;4997776;28;20042;-64
2023/08/12 08:22:25;;;;;;;0.00;0.00;;;21.50;99.90;;;;;;5002137;28;20077;-63
2023/08/12 08:24:50;;;;;;;0.00;0.00;;;21.40;99.90;;;;;;4995837;28;20045;-63
2023/08/12 08:27:16;;;;;;;0.00;0.00;;;21.60;99.90;;;;;;5000892;28;20038;-63
2023/08/12 08:29:42;;;;;;;0.00;0.00;;;21.50;99.90;;;;;;4998614;28;20470;-63
2023/08/12 08:32:08;;;;;;;0.00;0.00;;;21.60;99.90;;;;;;5012121;28;20041;-63
2023/08/12 08:34:34;;;;;;;0.00;0.00;;;21.80;99.90;;;;;;5000035;28;20304;-63
2023/08/12 08:36:59;;;;;;;0.00;0.00;;;21.70;99.90;;;;;;5004303;28;20457;-63
2023/08/12 08:39:25;;;;;;;0.00;0.00;;;21.50;99.90;;;;;;4999447;28;20041;-63
2023/08/12 08:41:54;;;;;;;0.00;0.00;;;21.90;99.90;;;;;;4997360;28;20046;-63
2023/08/12 08:44:22;;;;;;;0.00;0.00;;;21.70;99.90;;;;;;5003898;28;20087;-63
2023/08/12 08:46:52;;;;;;;0.00;0.00;;;21.80;99.90;;;;;;5002044;28;20042;-63
2023/08/12 08:49:19;;;;;;;0.00;0.00;;;21.80;99.90;;;;;;4997854;28;20030;-63
2023/08/12 08:51:46;;;;;;;0.00;0.00;;;21.70;99.90;;;;;;5002536;28;20034;-63
2023/08/12 08:54:13;;;;;;;0.00;0.00;;;21.90;99.90;;;;;;4999517;28;20085;-63
2023/08/12 08:56:39;;;;;;;0.00;0.00;;;21.80;99.90;;;;;;5004872;28;21317;-63
2023/08/12 08:59:05;;;;;;;0.00;0.00;;;21.60;99.90;;;;;;5028973;28;20042;-62
2023/08/12 09:01:31;;;;;;;0.00;0.00;;;21.50;99.90;;;;;;5000772;28;20586;-62
2023/08/12 09:03:57;;;;;;;0.00;0.00;;;21.60;99.90;;;;;;5004533;28;20620;-62
2023/08/12 09:06:25;;;;;;;0.00;0.00;;;21.60;99.90;;;;;;5003421;28;20092;-62
2023/08/12 09:08:54;;;;;;;0.00;0.00;;;21.60;99.90;;;;;;5006278;28;20474;-63
2023/08/12 09:11:20;;;;;;;0.00;0.00;;;21.50;99.90;;;;;;5009615;28;20033;-62
2023/08/12 09:13:47;;;;;;;0.00;0.00;;;21.60;99.90;;;;;;4992246;28;20514;-62
2023/08/12 09:16:13;;;;;;;0.00;0.00;;;21.60;99.90;;;;;;5003202;28;20038;-63
2023/08/12 09:18:39;;;;;;;0.00;0.00;;;21.70;99.90;;;;;;5014890;28;20430;-63
2023/08/12 09:21:05;;;;;;;0.00;0.00;;;21.50;99.90;;;;;;5018206;28;20393;-62
2023/08/12 09:23:39;;;;;;;0.00;0.00;;;21.60;99.90;;;;;;5017980;28;20030;-63
2023/08/12 09:26:17;;;;;;;0.00;0.00;;;21.70;99.90;;;;;;5007066;28;20277;-63
2023/08/12 09:28:43;;;;;;;0.00;0.00;;;21.60;99.90;;;;;;4998710;28;20037;-63
2023/08/12 09:31:21;;;;;;;0.00;0.00;;;21.60;99.90;;;;;;5000465;28;20033;-64
2023/08/12 09:33:47;;;;;;;0.00;0.00;;;;;;;;;;5006913;28;20023;-64
2023/08/12 09:36:14;;;;;;;0.00;0.00;;;;;;;;;;5003705;28;20033;-64
2023/08/12 09:38:40;;;;;;;0.00;0.00;;;21.60;99.90;;;;;;5012563;28;20378;-63
2023/08/12 09:41:05;;;;;;;0.00;0.00;;;21.10;99.90;;;;;;5007201;28;20521;-64
2023/08/12 09:43:31;;;;;;;0.00;0.00;;;21.60;99.90;;;;;;5001290;28;20092;-64
2023/08/12 09:45:59;;;;;;;0.00;0.00;;;;;;;;;;5001254;28;20064;-63
2023/08/12 09:48:27;;;;;;;0.00;0.00;;;22.50;99.90;;;;;;5000861;28;20588;-64
2023/08/12 09:50:56;;;;;;;0.00;0.00;;;21.80;99.90;;;;;;4996261;28;20041;-64
2023/08/12 09:53:25;;;;;;;0.00;0.00;;;;;;;;;;5000604;28;20117;-64
2023/08/12 09:55:54;;;;;;;0.00;0.00;;;22.10;99.90;;;;;;5009441;28;20072;-64
2023/08/12 09:58:24;;;;;;;0.00;0.00;;;;;;;;;;5011127;28;20073;-64
2023/08/12 10:00:52;;;;;;;0.00;0.00;;;;;;;;;;4992450;28;20037;-63
2023/08/12 10:03:20;;;;;;;0.00;0.00;;;22.40;99.90;;;;;;4999507;28;20457;-64
2023/08/12 10:05:47;;;;;;;0.00;0.00;;;22.50;99.90;;;;;;5020285;28;20038;-64
2023/08/12 10:08:14;;;;;;;0.00;0.00;;;22.60;99.90;;;;;;5005206;28;20449;-64
2023/08/12 10:10:40;;;;;;;0.00;0.00;;;22.60;99.90;;;;;;4999284;28;20405;-62
2023/08/12 10:13:07;;;;;;;0.00;0.00;;;22.70;99.90;;;;;;5001307;28;20053;-62
2023/08/12 10:15:34;;;;;;;0.00;0.00;;;22.70;99.90;;;;;;5014366;28;20033;-62
2023/08/12 10:17:59;;;;;;;0.00;0.00;;;22.60;99.90;;;;;;5018961;28;20357;-62
2023/08/12 10:20:25;;;;;;;0.00;0.00;;;22.60;99.90;;;;;;5011862;28;20048;-61
2023/08/12 10:22:52;;;;;;;0.00;0.00;;;22.50;99.90;;;;;;4998886;28;20109;-61
2023/08/12 10:25:24;;;;;;;0.00;0.00;;;22.40;99.90;;;;;;4998158;28;20038;-62
2023/08/12 10:27:50;;;;;;;0.00;0.00;;;22.50;99.90;;;;;;5006510;28;20052;-62
2023/08/12 10:30:16;;;;;;;0.00;0.00;;;22.30;99.90;;;;;;5021386;28;20037;-62
2023/08/12 10:32:42;;;;;;;0.00;0.00;;;22.30;99.90;;;;;;5020274;28;20444;-62
2023/08/12 10:35:09;;;;;;;0.00;0.00;;;22.30;99.90;;;;;;5012789;28;20577;-62
2023/08/12 10:37:34;;;;;;;0.00;0.00;;;22.40;99.90;;;;;;5004945;28;20033;-62
2023/08/12 10:40:07;;;;;;;0.00;0.00;;;22.30;99.90;;;;;;5008925;28;20419;-62
2023/08/12 10:42:47;;;;;;;0.00;0.00;;;22.40;99.90;;;;;;5026566;28;20036;-62
2023/08/12 10:45:15;;;;;;;0.00;0.00;;;22.50;99.90;;;;;;5000494;28;20037;-62
2023/08/12 10:47:53;;;;;;;0.00;0.00;;;22.30;99.90;;;;;;5017592;28;20121;-62
2023/08/12 10:50:21;;;;;;;0.00;0.00;;;22.30;99.90;;;;;;5014258;28;20034;-61
2023/08/12 10:52:47;;;;;;;0.00;0.00;;;22.40;99.90;;;;;;5001060;28;20445;-62
2023/08/12 10:55:27;;;;;;;0.00;0.00;;;22.30;99.90;;;;;;5005396;28;20026;-62
2023/08/12 10:57:54;;;;;;;0.00;0.00;;;22.50;99.90;;;;;;4998035;28;20095;-61
2023/08/12 11:00:26;;;;;;;0.00;0.00;;;22.50;99.90;;;;;;5006716;28;20137;-61
2023/08/12 11:02:53;;;;;;;0.00;0.00;;;;;;;;;;5014198;28;20038;-62
2023/08/12 11:05:20;;;;;;;0.00;0.00;;;22.60;99.90;;;;;;5017381;28;20030;-62
2023/08/12 11:08:00;;;;;;;0.00;0.00;;;22.70;99.90;;;;;;4999859;28;20022;-62
2023/08/12 11:10:27;;;;;;;0.00;0.00;;;22.60;99.90;;;;;;5005404;28;20163;-61
2023/08/12 11:12:56;;;;;;;0.00;0.00;;;22.60;99.90;;;;;;5003302;28;20398;-61
2023/08/12 11:15:36;;;;;;;0.00;0.00;;;22.70;99.90;;;;;;5013289;28;20493;-62
2023/08/12 11:18:07;;;;;;;0.00;0.00;;;22.60;99.90;;;;;;5009872;28;20398;-61
2023/08/12 11:20:33;;;;;;;0.00;0.00;;;22.50;99.90;;;;;;5005365;28;20080;-62
2023/08/12 11:22:59;;;;;;;0.00;0.00;;;22.50;99.90;;;;;;5001095;28;20048;-62
2023/08/12 11:25:27;;;;;;;0.00;0.00;;;22.40;99.90;;;;;;4997923;28;20104;-64
2023/08/12 11:27:53;;;;;;;0.00;0.00;;;21.90;99.90;;;;;;5012357;28;20212;-64
2023/08/12 11:30:21;;;;;;;0.00;0.00;;;21.70;99.90;;;;;;5011915;28;20145;-63
2023/08/12 11:32:48;;;;;;;0.00;0.00;;;21.60;99.90;;;;;;5014662;28;20041;-64
2023/08/12 11:35:16;;;;;;;0.00;0.00;;;21.50;99.90;;;;;;5004719;28;20501;-63
2023/08/12 11:37:44;;;;;;;0.00;0.00;;;21.50;99.90;;;;;;5003519;28;20127;-63
2023/08/12 11:40:14;;;;;;;0.00;0.00;;;21.60;99.90;;;;;;5007017;28;20145;-63
2023/08/12 11:42:41;;;;;;;0.00;0.00;;;21.40;99.90;;;;;;5007026;28;20042;-64
2023/08/12 11:45:07;;;;;;;0.00;0.00;;;21.40;99.90;;;;;;5016175;28;20034;-64
2023/08/12 11:47:37;;;;;;;0.00;0.00;;;21.40;99.90;;;;;;5016401;28;20085;-65
2023/08/12 11:50:03;;;;;;;0.00;0.00;;;21.60;99.90;;;;;;5004889;28;20172;-62
2023/08/12 11:52:30;;;;;;;0.00;0.00;;;21.40;99.90;;;;;;5016792;28;20476;-64
2023/08/12 11:54:56;;;;;;;0.00;0.00;;;21.70;99.90;;;;;;5012491;28;20495;-63
2023/08/12 11:57:23;;;;;;;0.00;0.00;;;21.70;99.90;;;;;;4997059;28;20041;-63
2023/08/12 11:59:51;;;;;;;0.00;0.00;;;21.80;99.90;;;;;;4994526;28;20521;-63
2023/08/12 12:02:17;;;;;;;0.00;0.00;;;22.00;99.90;;;;;;4997036;28;20045;-63
2023/08/12 12:04:43;;;;;;;0.00;0.00;;;21.80;99.90;;;;;;4989221;28;20038;-63
2023/08/12 12:07:19;;;;;;;0.00;0.00;;;22.00;99.90;;;;;;5002392;28;20244;-62
2023/08/12 12:09:45;;;;;;;0.00;0.00;;;22.00;99.90;;;;;;5002109;28;20060;-61
2023/08/12 12:12:11;;;;;;;0.00;0.00;;;21.90;99.90;;;;;;4999279;28;20057;-64
2023/08/12 12:14:36;;;;;;;0.00;0.00;;;22.20;99.90;;;;;;4993111;28;20054;-64
2023/08/12 12:17:07;;;;;;;0.00;0.00;;;22.30;99.90;;;;;;4993463;28;20034;-64
2023/08/12 12:19:33;;;;;;;0.00;0.00;;;22.40;99.90;;;;;;5005788;28;20056;-64
2023/08/12 12:22:05;;;;;;;0.00;0.00;;;22.50;99.90;;;;;;5004861;28;20489;-64
2023/08/12 12:24:31;;;;;;;0.00;0.00;;;22.60;99.90;;;;;;5019002;28;20033;-64
2023/08/12 12:26:57;;;;;;;0.00;0.00;;;22.60;99.90;;;;;;5021366;28;20073;-64
2023/08/12 12:29:23;;;;;;;0.00;0.00;;;22.30;99.90;;;;;;5020927;28;20621;-64
2023/08/12 12:31:48;;;;;;;0.00;0.00;;;22.50;99.90;;;;;;5008949;28;20475;-64
2023/08/12 12:34:14;;;;;;;0.00;0.00;;;22.50;99.90;;;;;;4998705;28;20125;-64
2023/08/12 12:36:40;;;;;;;0.00;0.00;;;22.60;99.90;;;;;;5014476;28;20037;-64
2023/08/12 12:39:06;;;;;;;0.00;0.00;;;22.30;99.90;;;;;;5008624;28;20353;-64
2023/08/12 12:41:33;;;;;;;0.00;0.00;;;22.60;99.90;;;;;;4999551;28;20030;-64